createdAt,value
2019-01-09T00:03:58.417Z,92.56
2019-01-09T00:06:24.663Z,92.30
2019-01-09T00:08:50.925Z,92.00
2019-01-09T00:11:17.159Z,91.83
2019-01-09T00:13:43.412Z,92.03
2019-01-09T00:16:09.674Z,92.28
2019-01-09T00:18:35.926Z,91.91
2019-01-09T00:21:02.248Z,91.75
2019-01-09T00:23:28.488Z,92.42
2019-01-09T00:25:54.711Z,92.34
2019-01-09T00:28:20.964Z,92.12
2019-01-09T00:30:47.179Z,91.96
2019-01-09T00:33:13.338Z,92.01
2019-01-09T00:35:39.569Z,92.12
2019-01-09T00:38:05.799Z,92.21
2019-01-09T00:40:31.929Z,92.00
2019-01-09T00:42:58.182Z,92.01
2019-01-09T00:45:24.411Z,92.35
2019-01-09T00:47:50.638Z,91.68
2019-01-09T00:50:16.780Z,91.37
2019-01-09T00:52:43.015Z,91.81
2019-01-09T00:55:50.560Z,92.10
2019-01-09T00:58:16.830Z,92.15
2019-01-09T01:00:43.089Z,92.47
2019-01-09T01:03:48.865Z,92.92
2019-01-09T01:06:54.628Z,92.94
2019-01-09T01:10:02.211Z,92.89
2019-01-09T01:13:07.956Z,92.98
2019-01-09T01:16:15.507Z,93.49
2019-01-09T01:28:35.988Z,93.88
2019-01-09T01:31:41.764Z,94.01
2019-01-09T01:34:47.509Z,93.97
2019-01-09T01:37:53.252Z,94.39
2019-01-09T01:40:58.990Z,94.54
2019-01-09T01:44:04.736Z,94.79
2019-01-09T01:47:10.507Z,95.02
2019-01-09T01:50:16.254Z,95.25
2019-01-09T01:53:22.043Z,95.07
2019-01-09T02:02:29.649Z,94.94
2019-01-09T02:05:37.178Z,95.34
2019-01-09T02:32:43.528Z,94.76
2019-01-09T02:35:09.772Z,94.61
2019-01-09T02:37:36.021Z,94.09
2019-01-09T02:40:02.255Z,94.10
2019-01-09T02:42:28.403Z,94.27
2019-01-09T02:44:54.653Z,94.34
2019-01-09T02:47:20.912Z,94.41
2019-01-09T02:49:47.153Z,94.23
2019-01-09T02:52:13.404Z,94.42
2019-01-09T02:54:39.636Z,94.43
2019-01-09T02:57:05.783Z,94.48
2019-01-09T02:59:32.034Z,94.42
2019-01-09T03:01:58.261Z,94.36
2019-01-09T03:04:24.497Z,93.97
2019-01-09T03:06:50.843Z,93.94
2019-01-09T03:09:17.079Z,94.08
2019-01-09T03:11:43.317Z,94.12
2019-01-09T03:14:09.569Z,94.31
2019-01-09T03:16:35.818Z,94.57
2019-01-09T03:19:02.067Z,94.62
2019-01-09T03:21:28.400Z,94.72
2019-01-09T03:23:54.560Z,94.86
2019-01-09T03:26:20.805Z,94.81
2019-01-09T03:28:47.058Z,94.68
2019-01-09T03:31:13.217Z,94.69
2019-01-09T03:33:39.448Z,94.68
2019-01-09T03:36:05.692Z,94.40
2019-01-09T03:38:31.938Z,94.62
2019-01-09T03:40:58.173Z,94.94
2019-01-09T03:43:24.425Z,95.30
2019-01-09T03:45:50.650Z,95.07
2019-01-09T03:48:16.801Z,95.02
2019-01-09T03:50:43.058Z,94.63
2019-01-09T03:53:09.301Z,94.63
2019-01-09T03:55:35.575Z,94.25
2019-01-09T03:58:01.790Z,94.14
2019-01-09T04:00:27.925Z,93.91
2019-01-09T04:02:54.064Z,93.67
2019-01-09T04:05:20.327Z,93.79
2019-01-09T04:07:46.563Z,94.10
2019-01-09T04:10:12.711Z,93.33
2019-01-09T04:12:38.944Z,93.02
2019-01-09T04:15:46.512Z,92.68
2019-01-09T04:18:12.768Z,92.42
2019-01-09T04:20:38.900Z,92.26
2019-01-09T04:23:05.143Z,91.79
2019-01-09T04:25:31.393Z,91.46
2019-01-09T04:27:57.632Z,91.22
2019-01-09T04:30:23.883Z,91.67
2019-01-09T04:32:50.008Z,91.53
2019-01-09T04:35:16.263Z,91.72
2019-01-09T04:37:42.483Z,92.05
2019-01-09T04:40:08.764Z,92.27
2019-01-09T04:42:34.999Z,92.17
2019-01-09T04:45:01.444Z,91.82
2019-01-09T04:47:27.650Z,92.09
2019-01-09T04:49:53.780Z,92.42
2019-01-09T04:52:20.016Z,92.41
2019-01-09T04:54:46.257Z,92.06
2019-01-09T04:57:12.495Z,92.18
2019-01-09T04:59:38.848Z,92.38
2019-01-09T05:02:05.078Z,92.58
2019-01-09T05:04:31.334Z,92.40
2019-01-09T05:07:00.701Z,92.80
2019-01-09T05:09:25.733Z,92.92
2019-01-09T05:11:51.983Z,92.82
2019-01-09T05:14:18.233Z,92.99
2019-01-09T05:16:44.396Z,92.65
2019-01-09T05:19:10.634Z,92.82
2019-01-09T05:21:36.888Z,93.37
2019-01-09T05:24:03.145Z,93.51
2019-01-09T05:26:29.291Z,93.27
2019-01-09T05:28:55.524Z,93.57
2019-01-09T05:31:21.794Z,93.20
2019-01-09T05:33:48.018Z,93.85
2019-01-09T05:36:14.269Z,93.66
2019-01-09T05:38:40.496Z,93.64
2019-01-09T05:41:06.656Z,93.60
2019-01-09T05:43:32.887Z,93.61
2019-01-09T05:45:59.036Z,93.92
2019-01-09T05:48:25.271Z,93.60
2019-01-09T05:50:51.502Z,93.46
2019-01-09T05:53:17.741Z,93.49
2019-01-09T05:55:43.997Z,93.55
2019-01-09T05:58:10.237Z,93.45
2019-01-09T06:00:36.498Z,93.63
2019-01-09T06:03:02.732Z,93.40
2019-01-09T06:05:28.967Z,93.46
2019-01-09T06:08:07.606Z,93.67
2019-01-09T06:13:06.472Z,93.64
2019-01-09T06:15:32.832Z,93.21
2019-01-09T06:17:59.056Z,93.13
2019-01-09T06:20:25.303Z,93.43
2019-01-09T06:22:51.463Z,93.51
2019-01-09T06:25:17.600Z,93.67
2019-01-09T06:27:43.844Z,93.65
2019-01-09T06:30:10.124Z,93.43
2019-01-09T06:32:36.420Z,93.01
2019-01-09T06:35:02.758Z,93.19
2019-01-09T06:37:29.013Z,93.50
2019-01-09T06:39:55.249Z,93.90
2019-01-09T06:42:21.514Z,93.66
2019-01-09T06:44:47.648Z,93.10
2019-01-09T06:47:13.897Z,92.86
2019-01-09T06:49:40.127Z,93.42
2019-01-09T06:52:06.394Z,93.66
2019-01-09T06:54:32.669Z,93.77
2019-01-09T06:56:58.910Z,94.05
2019-01-09T06:59:25.200Z,94.00
2019-01-09T07:01:51.497Z,94.24
2019-01-09T07:04:17.801Z,94.68
2019-01-09T07:06:44.083Z,94.63
2019-01-09T07:09:10.317Z,94.47
2019-01-09T07:11:36.549Z,94.18
2019-01-09T07:14:02.810Z,94.03
2019-01-09T07:16:29.092Z,94.24
2019-01-09T07:18:55.324Z,94.21
2019-01-09T07:21:21.569Z,94.29
2019-01-09T07:23:47.829Z,94.32
2019-01-09T07:26:14.064Z,94.38
2019-01-09T07:28:41.807Z,94.14
2019-01-09T07:31:08.438Z,93.76
2019-01-09T07:33:34.682Z,93.97
2019-01-09T07:36:00.916Z,94.15
2019-01-09T07:38:27.175Z,93.91
2019-01-09T07:40:53.423Z,94.20
2019-01-09T07:43:19.675Z,94.57
2019-01-09T07:45:45.931Z,94.37
2019-01-09T07:48:12.169Z,94.21
2019-01-09T07:50:38.298Z,94.13
2019-01-09T07:53:04.539Z,94.50
2019-01-09T07:55:30.774Z,94.48
2019-01-09T07:57:57.019Z,94.68
2019-01-09T08:00:23.257Z,94.72
2019-01-09T08:02:49.625Z,94.81
2019-01-09T08:05:15.761Z,94.96
2019-01-09T08:07:41.995Z,94.97
2019-01-09T08:10:49.544Z,94.87
2019-01-09T08:13:15.692Z,94.53
2019-01-09T08:15:41.923Z,93.81
2019-01-09T08:18:08.163Z,93.63
2019-01-09T08:20:34.390Z,92.74
2019-01-09T08:23:00.640Z,93.27
2019-01-09T08:25:26.771Z,93.79
2019-01-09T08:27:52.921Z,94.07
2019-01-09T08:30:19.165Z,93.96
2019-01-09T08:32:45.295Z,93.13
2019-01-09T08:35:11.547Z,92.74
2019-01-09T08:37:37.786Z,92.39
2019-01-09T08:40:45.337Z,92.62
2019-01-09T08:43:11.664Z,92.76
2019-01-09T08:45:37.909Z,92.86
2019-01-09T08:48:04.056Z,93.27
2019-01-09T08:50:30.294Z,92.75
2019-01-09T08:52:56.521Z,92.02
2019-01-09T08:55:22.676Z,92.42
2019-01-09T08:57:48.902Z,92.85
2019-01-09T09:00:15.160Z,92.60
2019-01-09T09:02:41.395Z,92.89
2019-01-09T09:05:07.635Z,92.53
2019-01-09T09:10:41.223Z,92.87
2019-01-09T09:13:48.778Z,92.95
2019-01-09T09:16:15.032Z,92.73
2019-01-09T09:18:41.284Z,91.63
2019-01-09T09:21:07.562Z,92.13
2019-01-09T09:23:33.789Z,92.53
2019-01-09T09:25:59.921Z,91.94
2019-01-09T09:28:26.159Z,92.68
2019-01-09T09:30:52.405Z,93.13
2019-01-09T09:33:18.638Z,93.16
2019-01-09T09:35:44.880Z,92.89
2019-01-09T09:38:11.022Z,92.57
2019-01-09T09:40:37.275Z,92.69
2019-01-09T09:43:03.509Z,93.02
2019-01-09T09:45:29.661Z,93.03
2019-01-09T09:47:55.896Z,93.21
2019-01-09T09:50:22.140Z,93.24
2019-01-09T09:52:48.275Z,93.40
2019-01-09T09:55:14.420Z,93.22
2019-01-09T09:57:40.668Z,93.18
2019-01-09T10:00:28.485Z,92.95
2019-01-09T10:02:54.629Z,92.69
2019-01-09T10:05:20.875Z,92.90
2019-01-09T10:07:47.108Z,92.86
2019-01-09T10:13:09.908Z,93.70
2019-01-09T10:15:36.063Z,93.67
2019-01-09T10:18:02.318Z,93.71
2019-01-09T10:20:28.570Z,93.65
2019-01-09T10:22:54.719Z,93.92
2019-01-09T10:25:20.972Z,93.83
2019-01-09T10:27:47.119Z,93.80
2019-01-09T10:30:33.087Z,93.96
2019-01-09T10:32:59.330Z,94.08
2019-01-09T10:35:25.604Z,94.00
2019-01-09T10:37:51.850Z,94.12
2019-01-09T10:43:32.229Z,94.63
2019-01-09T10:45:58.480Z,94.76
2019-01-09T10:48:24.724Z,94.74
2019-01-09T10:50:50.959Z,94.31
2019-01-09T10:53:17.203Z,94.34
2019-01-09T10:55:43.465Z,94.77
2019-01-09T10:58:09.745Z,95.07
2019-01-09T11:00:35.969Z,94.82
2019-01-09T11:05:56.139Z,94.85
2019-01-09T11:08:22.396Z,94.88
2019-01-09T11:10:48.627Z,94.69
2019-01-09T11:13:14.895Z,94.63
2019-01-09T11:15:41.031Z,94.76
2019-01-09T11:18:07.279Z,95.12
2019-01-09T11:20:33.515Z,94.60
2019-01-09T11:22:59.764Z,94.60
2019-01-09T11:25:26.099Z,94.69
2019-01-09T11:27:52.343Z,94.54
2019-01-09T11:30:18.772Z,94.66
2019-01-09T11:32:45.010Z,94.52
2019-01-09T11:38:24.752Z,94.48
2019-01-09T11:40:50.986Z,94.58
2019-01-09T11:43:17.232Z,94.55
2019-01-09T11:45:43.463Z,93.96
2019-01-09T11:48:09.707Z,94.17
2019-01-09T11:50:35.944Z,94.47
2019-01-09T11:53:02.193Z,94.34
2019-01-09T11:55:28.420Z,94.31
2019-01-09T11:57:54.677Z,94.39
2019-01-09T12:03:34.989Z,94.07
2019-01-09T12:06:01.216Z,94.23
2019-01-09T12:08:27.457Z,94.18
2019-01-09T12:10:53.687Z,93.84
2019-01-09T12:13:19.929Z,93.87
2019-01-09T12:15:46.173Z,94.22
2019-01-09T12:18:12.325Z,94.30
2019-01-09T12:20:38.575Z,93.51
2019-01-09T12:23:04.732Z,93.69
2019-01-09T12:25:30.993Z,93.81
2019-01-09T12:27:57.221Z,94.00
2019-01-09T12:31:04.773Z,93.95
2019-01-09T12:33:31.034Z,93.31
2019-01-09T12:35:57.277Z,93.26
2019-01-09T12:38:23.523Z,93.50
2019-01-09T12:40:49.769Z,92.61
2019-01-09T12:43:16.013Z,92.79
2019-01-09T12:45:42.162Z,92.53
2019-01-09T12:48:08.395Z,93.19
2019-01-09T12:50:34.533Z,93.38
2019-01-09T12:53:00.765Z,93.37
2019-01-09T12:55:27.008Z,93.16
2019-01-09T12:57:53.241Z,93.03
2019-01-09T13:00:39.229Z,92.58
2019-01-09T13:03:05.468Z,92.29
2019-01-09T13:05:31.724Z,92.27
2019-01-09T13:07:57.955Z,92.35
2019-01-09T13:10:24.189Z,92.26
2019-01-09T13:12:50.333Z,92.24
2019-01-09T13:15:16.579Z,92.05
2019-01-09T13:17:42.926Z,92.80
2019-01-09T13:20:30.728Z,92.67
2019-01-09T13:22:56.864Z,92.29
2019-01-09T13:25:23.101Z,91.92
2019-01-09T13:27:49.327Z,91.60
2019-01-09T13:30:56.880Z,91.76
2019-01-09T13:33:23.107Z,91.87
2019-01-09T13:35:49.362Z,92.15
2019-01-09T13:38:15.673Z,91.76
2019-01-09T13:40:41.841Z,91.51
2019-01-09T13:43:08.068Z,90.93
2019-01-09T13:45:34.319Z,91.18
2019-01-09T13:48:00.440Z,91.88
2019-01-09T13:50:26.586Z,92.09
2019-01-09T13:52:52.805Z,92.14
2019-01-09T13:55:19.041Z,92.18
2019-01-09T13:57:45.358Z,92.19
2019-01-09T14:00:31.264Z,91.53
2019-01-09T14:02:57.496Z,90.67
2019-01-09T14:05:23.741Z,90.68
2019-01-09T14:07:49.970Z,91.36
2019-01-09T14:10:57.521Z,91.72
2019-01-09T14:13:23.761Z,91.66
2019-01-09T14:15:50.011Z,91.14
2019-01-09T14:18:16.145Z,91.22
2019-01-09T14:20:42.376Z,91.42
2019-01-09T14:23:08.628Z,91.76
2019-01-09T14:25:34.853Z,91.62
2019-01-09T14:28:01.594Z,90.70
2019-01-09T14:30:29.227Z,90.14
2019-01-09T14:32:55.374Z,90.34
2019-01-09T14:35:21.629Z,91.05
2019-01-09T14:37:47.859Z,90.06
2019-01-09T14:40:37.245Z,89.89
2019-01-09T14:43:03.799Z,90.41
2019-01-09T14:45:30.026Z,90.69
2019-01-09T14:47:56.170Z,90.56
2019-01-09T14:51:03.754Z,89.41
2019-01-09T14:53:30.007Z,89.43
2019-01-09T14:55:56.248Z,89.62
2019-01-09T14:58:22.500Z,89.67
2019-01-09T15:00:48.856Z,89.93
2019-01-09T15:03:15.067Z,90.10
2019-01-09T15:05:41.296Z,90.52
2019-01-09T15:08:07.538Z,90.23
2019-01-09T15:10:33.660Z,89.91
2019-01-09T15:12:59.895Z,89.88
2019-01-09T15:18:33.495Z,90.42
2019-01-09T15:20:59.723Z,91.01
2019-01-09T15:23:25.968Z,90.86
2019-01-09T15:25:52.109Z,90.86
2019-01-09T15:28:18.335Z,89.85
2019-01-09T15:30:44.467Z,89.79
2019-01-09T15:33:10.626Z,89.08
2019-01-09T15:35:36.844Z,89.40
2019-01-09T15:38:03.181Z,90.07
2019-01-09T15:40:29.402Z,90.25
2019-01-09T15:42:55.647Z,89.54
2019-01-09T15:48:11.983Z,88.93
2019-01-09T15:50:38.212Z,89.40
2019-01-09T15:53:04.463Z,89.55
2019-01-09T15:55:30.686Z,88.97
2019-01-09T15:57:57.074Z,88.46
2019-01-09T16:00:43.062Z,88.84
2019-01-09T16:03:09.308Z,89.09
2019-01-09T16:05:35.553Z,88.81
2019-01-09T16:08:01.675Z,88.83
2019-01-09T16:10:27.915Z,88.39
2019-01-09T16:12:54.041Z,88.46
2019-01-09T16:18:13.762Z,88.44
2019-01-09T16:20:40.001Z,88.26
2019-01-09T16:23:06.226Z,88.57
2019-01-09T16:25:32.367Z,88.88
2019-01-09T16:27:58.590Z,88.61
2019-01-09T16:31:04.333Z,88.88
2019-01-09T16:33:30.559Z,89.02
2019-01-09T16:35:56.794Z,89.10
2019-01-09T16:38:22.922Z,88.71
2019-01-09T16:40:49.162Z,88.67
2019-01-09T16:43:15.479Z,88.69
2019-01-09T16:45:41.621Z,88.79
2019-01-09T16:48:07.841Z,88.92
2019-01-09T16:50:34.191Z,88.64
2019-01-09T16:53:00.316Z,88.41
2019-01-09T16:55:26.653Z,88.06
2019-01-09T16:57:59.676Z,88.21
2019-01-09T17:01:07.229Z,88.62
2019-01-09T17:03:33.462Z,88.18
2019-01-09T17:05:59.695Z,87.25
2019-01-09T17:08:25.925Z,87.27
2019-01-09T17:10:52.188Z,87.37
2019-01-09T17:13:18.408Z,86.64
2019-01-09T17:15:46.547Z,86.66
2019-01-09T17:18:12.886Z,86.48
2019-01-09T17:20:39.026Z,86.75
2019-01-09T17:23:05.257Z,87.51
2019-01-09T17:25:31.500Z,87.73
2019-01-09T17:27:57.732Z,87.21
2019-01-09T17:33:26.470Z,86.35
2019-01-09T17:35:52.630Z,86.27
2019-01-09T17:38:20.763Z,86.15
2019-01-09T17:40:47.006Z,86.23
2019-01-09T17:43:13.224Z,85.40
2019-01-09T17:45:39.492Z,84.98
2019-01-09T17:48:05.722Z,85.02
2019-01-09T17:51:13.264Z,85.98
2019-01-09T17:53:39.508Z,86.44
2019-01-09T17:56:05.745Z,86.18
2019-01-09T17:58:32.074Z,85.64
2019-01-09T18:00:58.379Z,85.79
2019-01-09T18:03:24.621Z,85.76
2019-01-09T18:08:38.468Z,85.91
2019-01-09T18:14:05.471Z,86.21
2019-01-09T18:16:31.726Z,86.28
2019-01-09T18:18:57.963Z,86.28
2019-01-09T18:21:24.088Z,86.42
2019-01-09T18:23:50.322Z,86.15
2019-01-09T18:26:16.642Z,85.73
2019-01-09T18:28:42.778Z,85.64
2019-01-09T18:34:23.089Z,85.83
2019-01-09T18:37:30.653Z,85.90
2019-01-09T18:40:36.389Z,86.22
2019-01-09T18:43:42.158Z,86.23
2019-01-09T18:46:40.716Z,86.19
2019-01-09T18:49:46.467Z,86.14
2019-01-09T18:55:13.247Z,85.88
2019-01-09T18:57:39.815Z,85.86
2019-01-09T19:00:25.813Z,86.28
2019-01-09T19:02:51.957Z,86.49
2019-01-09T19:05:18.190Z,86.18
2019-01-09T19:07:44.624Z,85.36
2019-01-09T19:10:30.729Z,85.01
2019-01-09T19:12:56.963Z,85.08
2019-01-09T19:15:23.311Z,85.16
2019-01-09T19:17:49.559Z,85.57
2019-01-09T19:20:16.111Z,85.58
2019-01-09T19:22:42.547Z,85.95
2019-01-09T19:25:50.119Z,85.73
2019-01-09T19:28:16.473Z,85.53
2019-01-09T19:30:44.913Z,85.55
2019-01-09T19:33:11.136Z,85.91
2019-01-09T19:35:37.381Z,84.67
2019-01-09T19:38:03.615Z,84.64
2019-01-09T19:40:29.865Z,84.47
2019-01-09T19:42:56.001Z,84.62
2019-01-09T19:45:22.237Z,85.42
2019-01-09T19:47:48.361Z,85.48
2019-01-09T19:50:42.327Z,85.01
2019-01-09T19:53:02.680Z,85.04
2019-01-09T19:55:28.932Z,85.32
2019-01-09T19:57:55.076Z,84.89
2019-01-09T20:01:02.629Z,85.18
2019-01-09T20:03:28.893Z,85.91
2019-01-09T20:05:55.238Z,85.07
2019-01-09T20:08:21.468Z,84.57
2019-01-09T20:10:47.703Z,84.22
2019-01-09T20:13:13.973Z,84.25
2019-01-09T20:15:40.118Z,84.05
2019-01-09T20:18:06.513Z,83.58
2019-01-09T20:20:32.739Z,83.60
2019-01-09T20:22:58.977Z,83.90
2019-01-09T20:25:25.266Z,84.63
2019-01-09T20:27:51.373Z,85.16
2019-01-09T20:30:58.905Z,84.79
2019-01-09T20:33:25.160Z,84.87
2019-01-09T20:35:51.326Z,85.26
2019-01-09T20:38:17.522Z,84.91
2019-01-09T20:40:43.890Z,84.93
2019-01-09T20:43:10.105Z,84.94
2019-01-09T20:45:36.351Z,85.16
2019-01-09T20:48:02.493Z,83.93
2019-01-09T20:53:22.660Z,83.56
2019-01-09T20:55:49.146Z,84.54
2019-01-09T20:58:15.306Z,84.02
2019-01-09T21:00:41.489Z,83.94
2019-01-09T21:05:41.687Z,84.50
2019-01-09T21:08:07.919Z,84.37
2019-01-09T21:10:34.188Z,84.31
2019-01-09T21:13:00.320Z,84.98
2019-01-09T21:15:26.540Z,85.27
2019-01-09T21:17:52.767Z,84.21
2019-01-09T21:20:38.776Z,84.14
2019-01-09T21:23:04.938Z,84.48
2019-01-09T21:25:31.055Z,84.46
2019-01-09T21:27:57.195Z,84.13
2019-01-09T21:31:04.732Z,83.93
2019-01-09T21:33:30.979Z,83.94
2019-01-09T21:35:57.193Z,84.55
2019-01-09T21:38:23.333Z,84.31
2019-01-09T21:40:49.462Z,83.78
2019-01-09T21:43:15.594Z,83.79
2019-01-09T21:45:41.822Z,84.68
2019-01-09T21:48:07.956Z,84.13
2019-01-09T21:50:34.075Z,83.31
2019-01-09T21:53:00.212Z,83.79
2019-01-09T21:55:26.333Z,84.37
2019-01-09T21:57:52.457Z,85.04
2019-01-09T22:00:59.984Z,83.88
2019-01-09T22:03:26.301Z,83.80
2019-01-09T22:05:52.442Z,83.47
2019-01-09T22:11:12.248Z,83.31
2019-01-09T22:13:38.412Z,83.28
2019-01-09T22:16:04.597Z,83.44
2019-01-09T22:18:30.896Z,83.33
2019-01-09T22:20:57.055Z,83.60
2019-01-09T22:23:23.742Z,84.24
2019-01-09T22:28:26.409Z,83.77
2019-01-09T22:30:52.563Z,83.56
2019-01-09T22:33:18.727Z,83.66
2019-01-09T22:35:44.896Z,83.75
2019-01-09T22:38:11.068Z,83.75
2019-01-09T22:40:37.325Z,83.25
2019-01-09T22:43:03.494Z,83.72
2019-01-09T22:45:29.683Z,83.22
2019-01-09T22:47:55.928Z,83.27
2019-01-09T22:53:19.095Z,83.69
2019-01-09T22:55:45.280Z,83.34
2019-01-09T22:58:11.448Z,83.15
2019-01-09T23:03:51.747Z,83.45
2019-01-09T23:06:18.200Z,82.65
2019-01-09T23:08:44.570Z,83.23
2019-01-09T23:11:10.838Z,83.43
2019-01-09T23:13:37.197Z,83.45
2019-01-09T23:16:44.791Z,83.93
2019-01-09T23:19:11.058Z,83.68
2019-01-09T23:21:37.355Z,83.88
2019-01-09T23:24:03.513Z,84.08
2019-01-09T23:26:29.707Z,83.81
2019-01-09T23:28:56.000Z,83.72
2019-01-09T23:31:22.379Z,84.00
2019-01-09T23:33:48.687Z,83.58
2019-01-09T23:36:14.928Z,83.69
2019-01-09T23:38:41.221Z,84.01
2019-01-09T23:41:07.494Z,83.44
2019-01-09T23:43:33.786Z,83.57
2019-01-09T23:45:59.952Z,84.15
2019-01-09T23:48:26.164Z,83.85
2019-01-09T23:50:52.450Z,83.85
2019-01-09T23:53:18.620Z,84.75
2019-01-09T23:55:44.944Z,84.75
2019-01-09T23:58:11.154Z,84.49
